sensor_id;sensor_type;location;lat;lon;timestamp;P1;durP1;ratioP1;P2;durP2;ratioP2
6785;SDS011;3430;51.192;6.048;2022-10-31T00:00:39;7.00;;;5.00;;
6785;SDS011;3430;51.192;6.048;2022-10-31T00:03:05;6.70;;;4.47;;
6785;SDS011;3430;51.192;6.048;2022-10-31T00:05:30;7.60;;;4.10;;
6785;SDS011;3430;51.192;6.048;2022-10-31T00:07:55;9.40;;;4.13;;
6785;SDS011;3430;51.192;6.048;2022-10-31T00:10:21;6.20;;;4.67;;
6785;SDS011;3430;51.192;6.048;2022-10-31T00:12:46;5.77;;;4.20;;
6785;SDS011;3430;51.192;6.048;2022-10-31T00:15:11;9.37;;;5.13;;
6785;SDS011;3430;51.192;6.048;2022-10-31T00:17:37;7.07;;;4.67;;
6785;SDS011;3430;51.192;6.048;2022-10-31T00:20:02;8.57;;;4.43;;
6785;SDS011;3430;51.192;6.048;2022-10-31T00:22:28;8.13;;;4.20;;
6785;SDS011;3430;51.192;6.048;2022-10-31T00:24:53;6.30;;;4.67;;
6785;SDS011;3430;51.192;6.048;2022-10-31T00:27:18;8.07;;;5.03;;
6785;SDS011;3430;51.192;6.048;2022-10-31T00:29:44;9.00;;;4.30;;
6785;SDS011;3430;51.192;6.048;2022-10-31T00:32:09;6.73;;;4.93;;
6785;SDS011;3430;51.192;6.048;2022-10-31T00:34:34;10.10;;;4.90;;
6785;SDS011;3430;51.192;6.048;2022-10-31T00:37:00;6.23;;;4.53;;
6785;SDS011;3430;51.192;6.048;2022-10-31T00:39:25;9.40;;;4.97;;
6785;SDS011;3430;51.192;6.048;2022-10-31T00:41:53;6.30;;;4.67;;
6785;SDS011;3430;51.192;6.048;2022-10-31T00:44:19;6.03;;;4.07;;
6785;SDS011;3430;51.192;6.048;2022-10-31T00:46:44;7.07;;;4.77;;
6785;SDS011;3430;51.192;6.048;2022-10-31T00:49:09;7.83;;;4.33;;
6785;SDS011;3430;51.192;6.048;2022-10-31T00:51:35;5.47;;;4.40;;
6785;SDS011;3430;51.192;6.048;2022-10-31T00:54:00;8.57;;;4.67;;
6785;SDS011;3430;51.192;6.048;2022-10-31T00:56:25;6.77;;;4.97;;
6785;SDS011;3430;51.192;6.048;2022-10-31T00:58:51;6.40;;;4.60;;
6785;SDS011;3430;51.192;6.048;2022-10-31T01:01:16;6.67;;;4.87;;
6785;SDS011;3430;51.192;6.048;2022-10-31T01:03:41;10.13;;;5.17;;
6785;SDS011;3430;51.192;6.048;2022-10-31T01:06:10;6.20;;;5.20;;
6785;SDS011;3430;51.192;6.048;2022-10-31T01:08:36;5.20;;;4.50;;
6785;SDS011;3430;51.192;6.048;2022-10-31T01:11:04;5.67;;;4.10;;
6785;SDS011;3430;51.192;6.048;2022-10-31T01:13:30;6.77;;;5.00;;
6785;SDS011;3430;51.192;6.048;2022-10-31T01:15:56;14.67;;;5.00;;
6785;SDS011;3430;51.192;6.048;2022-10-31T01:18:22;10.10;;;5.03;;
6785;SDS011;3430;51.192;6.048;2022-10-31T01:20:47;9.87;;;4.70;;
6785;SDS011;3430;51.192;6.048;2022-10-31T01:23:21;7.03;;;4.77;;
6785;SDS011;3430;51.192;6.048;2022-10-31T01:25:47;8.27;;;5.37;;
6785;SDS011;3430;51.192;6.048;2022-10-31T01:28:12;7.33;;;4.50;;
6785;SDS011;3430;51.192;6.048;2022-10-31T01:30:37;7.63;;;4.93;;
6785;SDS011;3430;51.192;6.048;2022-10-31T01:33:03;9.47;;;5.20;;
6785;SDS011;3430;51.192;6.048;2022-10-31T01:35:28;6.80;;;5.30;;
6785;SDS011;3430;51.192;6.048;2022-10-31T01:37:53;6.53;;;4.63;;
6785;SDS011;3430;51.192;6.048;2022-10-31T01:40:19;7.63;;;4.43;;
6785;SDS011;3430;51.192;6.048;2022-10-31T01:42:44;9.13;;;5.33;;
6785;SDS011;3430;51.192;6.048;2022-10-31T01:45:10;8.00;;;4.53;;
6785;SDS011;3430;51.192;6.048;2022-10-31T01:47:37;6.33;;;4.47;;
6785;SDS011;3430;51.192;6.048;2022-10-31T01:50:06;5.93;;;4.50;;
6785;SDS011;3430;51.192;6.048;2022-10-31T01:52:38;8.03;;;4.57;;
6785;SDS011;3430;51.192;6.048;2022-10-31T01:55:07;6.97;;;4.70;;
6785;SDS011;3430;51.192;6.048;2022-10-31T01:57:34;8.53;;;4.33;;
6785;SDS011;3430;51.192;6.048;2022-10-31T02:00:01;9.20;;;4.90;;
6785;SDS011;3430;51.192;6.048;2022-10-31T02:02:30;9.17;;;4.33;;
6785;SDS011;3430;51.192;6.048;2022-10-31T02:04:56;10.17;;;4.73;;
6785;SDS011;3430;51.192;6.048;2022-10-31T02:07:28;11.80;;;4.90;;
6785;SDS011;3430;51.192;6.048;2022-10-31T02:09:55;5.60;;;4.30;;
6785;SDS011;3430;51.192;6.048;2022-10-31T02:12:21;9.07;;;4.53;;
6785;SDS011;3430;51.192;6.048;2022-10-31T02:14:47;6.33;;;4.60;;
6785;SDS011;3430;51.192;6.048;2022-10-31T02:17:13;8.90;;;5.00;;
6785;SDS011;3430;51.192;6.048;2022-10-31T02:19:41;6.30;;;4.73;;
6785;SDS011;3430;51.192;6.048;2022-10-31T02:24:52;10.47;;;5.07;;
6785;SDS011;3430;51.192;6.048;2022-10-31T02:27:37;10.80;;;4.93;;
6785;SDS011;3430;51.192;6.048;2022-10-31T02:30:07;6.60;;;4.80;;
6785;SDS011;3430;51.192;6.048;2022-10-31T02:38:06;6.47;;;4.87;;
6785;SDS011;3430;51.192;6.048;2022-10-31T02:40:37;7.33;;;5.10;;
6785;SDS011;3430;51.192;6.048;2022-10-31T02:45:42;7.77;;;4.73;;
6785;SDS011;3430;51.192;6.048;2022-10-31T02:48:14;6.17;;;4.47;;
6785;SDS011;3430;51.192;6.048;2022-10-31T02:50:49;8.70;;;4.57;;
6785;SDS011;3430;51.192;6.048;2022-10-31T02:53:17;9.00;;;5.30;;
6785;SDS011;3430;51.192;6.048;2022-10-31T02:55:56;10.77;;;4.87;;
6785;SDS011;3430;51.192;6.048;2022-10-31T02:58:24;6.30;;;5.07;;
6785;SDS011;3430;51.192;6.048;2022-10-31T03:01:00;9.00;;;5.17;;
6785;SDS011;3430;51.192;6.048;2022-10-31T03:03:36;8.13;;;4.67;;
6785;SDS011;3430;51.192;6.048;2022-10-31T03:06:09;5.43;;;4.40;;
6785;SDS011;3430;51.192;6.048;2022-10-31T03:11:05;6.47;;;4.30;;
6785;SDS011;3430;51.192;6.048;2022-10-31T03:18:43;8.03;;;4.63;;
6785;SDS011;3430;51.192;6.048;2022-10-31T03:21:26;7.93;;;4.67;;
6785;SDS011;3430;51.192;6.048;2022-10-31T03:23:52;7.80;;;5.03;;
6785;SDS011;3430;51.192;6.048;2022-10-31T03:26:19;7.13;;;4.63;;
6785;SDS011;3430;51.192;6.048;2022-10-31T03:28:50;7.13;;;4.90;;
6785;SDS011;3430;51.192;6.048;2022-10-31T03:31:17;5.50;;;4.47;;
6785;SDS011;3430;51.192;6.048;2022-10-31T03:33:43;6.27;;;4.73;;
6785;SDS011;3430;51.192;6.048;2022-10-31T03:36:10;8.90;;;5.07;;
6785;SDS011;3430;51.192;6.048;2022-10-31T03:38:37;5.53;;;4.63;;
6785;SDS011;3430;51.192;6.048;2022-10-31T03:41:03;6.93;;;4.77;;
6785;SDS011;3430;51.192;6.048;2022-10-31T03:43:31;7.90;;;4.37;;
6785;SDS011;3430;51.192;6.048;2022-10-31T03:45:57;5.27;;;4.43;;
6785;SDS011;3430;51.192;6.048;2022-10-31T03:48:22;9.07;;;4.90;;
6785;SDS011;3430;51.192;6.048;2022-10-31T03:50:50;7.03;;;5.50;;
6785;SDS011;3430;51.192;6.048;2022-10-31T03:53:22;6.03;;;4.70;;
6785;SDS011;3430;51.192;6.048;2022-10-31T03:55:55;10.53;;;5.47;;
6785;SDS011;3430;51.192;6.048;2022-10-31T03:58:27;6.47;;;5.00;;
6785;SDS011;3430;51.192;6.048;2022-10-31T04:00:54;6.33;;;4.50;;
6785;SDS011;3430;51.192;6.048;2022-10-31T04:03:22;6.43;;;4.67;;
6785;SDS011;3430;51.192;6.048;2022-10-31T04:05:48;9.67;;;4.60;;
6785;SDS011;3430;51.192;6.048;2022-10-31T04:08:15;7.80;;;4.90;;
6785;SDS011;3430;51.192;6.048;2022-10-31T04:10:42;6.23;;;4.60;;
6785;SDS011;3430;51.192;6.048;2022-10-31T04:13:09;6.63;;;4.70;;
6785;SDS011;3430;51.192;6.048;2022-10-31T04:15:36;8.20;;;5.17;;
6785;SDS011;3430;51.192;6.048;2022-10-31T04:18:02;6.17;;;4.47;;
6785;SDS011;3430;51.192;6.048;2022-10-31T04:20:30;6.30;;;4.10;;
6785;SDS011;3430;51.192;6.048;2022-10-31T04:22:55;5.00;;;4.30;;
6785;SDS011;3430;51.192;6.048;2022-10-31T04:25:20;9.30;;;4.73;;
6785;SDS011;3430;51.192;6.048;2022-10-31T04:27:46;5.40;;;4.30;;
6785;SDS011;3430;51.192;6.048;2022-10-31T04:30:11;6.57;;;4.73;;
6785;SDS011;3430;51.192;6.048;2022-10-31T04:32:36;8.03;;;5.20;;
6785;SDS011;3430;51.192;6.048;2022-10-31T04:35:02;8.33;;;5.77;;
6785;SDS011;3430;51.192;6.048;2022-10-31T04:37:27;7.07;;;5.30;;
6785;SDS011;3430;51.192;6.048;2022-10-31T04:39:52;4.77;;;4.17;;
6785;SDS011;3430;51.192;6.048;2022-10-31T04:42:18;8.23;;;4.47;;
6785;SDS011;3430;51.192;6.048;2022-10-31T04:44:43;5.13;;;4.43;;
6785;SDS011;3430;51.192;6.048;2022-10-31T04:47:08;6.93;;;4.83;;
6785;SDS011;3430;51.192;6.048;2022-10-31T04:49:33;5.43;;;4.73;;
6785;SDS011;3430;51.192;6.048;2022-10-31T04:51:59;6.37;;;4.70;;
6785;SDS011;3430;51.192;6.048;2022-10-31T04:54:24;5.60;;;4.83;;
6785;SDS011;3430;51.192;6.048;2022-10-31T04:56:49;9.57;;;4.97;;
6785;SDS011;3430;51.192;6.048;2022-10-31T04:59:15;5.53;;;4.90;;
6785;SDS011;3430;51.192;6.048;2022-10-31T05:01:40;7.40;;;4.97;;
6785;SDS011;3430;51.192;6.048;2022-10-31T05:04:05;9.20;;;4.90;;
6785;SDS011;3430;51.192;6.048;2022-10-31T05:06:30;7.17;;;5.97;;
6785;SDS011;3430;51.192;6.048;2022-10-31T05:08:56;7.33;;;4.70;;
6785;SDS011;3430;51.192;6.048;2022-10-31T05:11:21;7.30;;;5.07;;
6785;SDS011;3430;51.192;6.048;2022-10-31T05:13:46;5.83;;;4.60;;
6785;SDS011;3430;51.192;6.048;2022-10-31T05:16:11;7.27;;;5.33;;
6785;SDS011;3430;51.192;6.048;2022-10-31T05:18:37;6.73;;;5.17;;
6785;SDS011;3430;51.192;6.048;2022-10-31T05:21:02;10.50;;;4.67;;
6785;SDS011;3430;51.192;6.048;2022-10-31T05:23:27;7.97;;;5.03;;
6785;SDS011;3430;51.192;6.048;2022-10-31T05:25:53;12.03;;;5.20;;
6785;SDS011;3430;51.192;6.048;2022-10-31T05:28:18;6.97;;;4.63;;
6785;SDS011;3430;51.192;6.048;2022-10-31T05:30:46;7.83;;;4.73;;
6785;SDS011;3430;51.192;6.048;2022-10-31T05:33:11;9.20;;;5.17;;
6785;SDS011;3430;51.192;6.048;2022-10-31T05:35:37;6.43;;;4.90;;
6785;SDS011;3430;51.192;6.048;2022-10-31T05:38:02;9.37;;;6.17;;
6785;SDS011;3430;51.192;6.048;2022-10-31T05:40:27;6.40;;;4.57;;
6785;SDS011;3430;51.192;6.048;2022-10-31T05:42:53;6.53;;;4.97;;
6785;SDS011;3430;51.192;6.048;2022-10-31T05:45:19;6.30;;;5.17;;
6785;SDS011;3430;51.192;6.048;2022-10-31T05:47:51;8.03;;;5.00;;
6785;SDS011;3430;51.192;6.048;2022-10-31T05:50:17;8.33;;;4.43;;
6785;SDS011;3430;51.192;6.048;2022-10-31T05:52:42;6.33;;;4.70;;
6785;SDS011;3430;51.192;6.048;2022-10-31T05:55:07;5.33;;;4.80;;
6785;SDS011;3430;51.192;6.048;2022-10-31T05:57:33;7.07;;;4.83;;
6785;SDS011;3430;51.192;6.048;2022-10-31T05:59:58;5.03;;;4.53;;
6785;SDS011;3430;51.192;6.048;2022-10-31T06:02:24;6.33;;;5.20;;
6785;SDS011;3430;51.192;6.048;2022-10-31T06:04:50;10.07;;;5.20;;
6785;SDS011;3430;51.192;6.048;2022-10-31T06:07:15;5.87;;;4.87;;
6785;SDS011;3430;51.192;6.048;2022-10-31T06:09:40;6.73;;;4.80;;
6785;SDS011;3430;51.192;6.048;2022-10-31T06:12:06;8.57;;;5.27;;
6785;SDS011;3430;51.192;6.048;2022-10-31T06:14:31;7.60;;;5.47;;
6785;SDS011;3430;51.192;6.048;2022-10-31T06:16:56;4.73;;;4.30;;
6785;SDS011;3430;51.192;6.048;2022-10-31T06:19:22;6.43;;;4.77;;
6785;SDS011;3430;51.192;6.048;2022-10-31T06:21:47;7.70;;;5.10;;
6785;SDS011;3430;51.192;6.048;2022-10-31T06:24:12;7.67;;;4.20;;
6785;SDS011;3430;51.192;6.048;2022-10-31T06:26:37;8.20;;;4.93;;
6785;SDS011;3430;51.192;6.048;2022-10-31T06:29:03;9.90;;;5.13;;
6785;SDS011;3430;51.192;6.048;2022-10-31T06:31:28;11.57;;;5.20;;
6785;SDS011;3430;51.192;6.048;2022-10-31T06:33:53;8.60;;;5.53;;
6785;SDS011;3430;51.192;6.048;2022-10-31T06:36:19;6.33;;;4.53;;
6785;SDS011;3430;51.192;6.048;2022-10-31T06:38:44;6.60;;;4.63;;
6785;SDS011;3430;51.192;6.048;2022-10-31T06:41:09;5.93;;;4.33;;
6785;SDS011;3430;51.192;6.048;2022-10-31T06:43:34;6.50;;;4.93;;
6785;SDS011;3430;51.192;6.048;2022-10-31T06:46:03;6.70;;;4.50;;
6785;SDS011;3430;51.192;6.048;2022-10-31T06:48:29;6.67;;;5.20;;
6785;SDS011;3430;51.192;6.048;2022-10-31T06:50:57;7.37;;;5.00;;
6785;SDS011;3430;51.192;6.048;2022-10-31T06:53:22;7.53;;;4.60;;
6785;SDS011;3430;51.192;6.048;2022-10-31T06:55:47;4.93;;;3.90;;
6785;SDS011;3430;51.192;6.048;2022-10-31T06:58:13;4.83;;;4.33;;
6785;SDS011;3430;51.192;6.048;2022-10-31T07:00:38;6.43;;;4.40;;
6785;SDS011;3430;51.192;6.048;2022-10-31T07:03:05;9.97;;;5.23;;
6785;SDS011;3430;51.192;6.048;2022-10-31T07:05:30;11.23;;;4.57;;
6785;SDS011;3430;51.192;6.048;2022-10-31T07:07:57;6.83;;;5.00;;
6785;SDS011;3430;51.192;6.048;2022-10-31T07:10:22;4.90;;;4.23;;
6785;SDS011;3430;51.192;6.048;2022-10-31T07:12:48;6.57;;;4.57;;
6785;SDS011;3430;51.192;6.048;2022-10-31T07:15:13;6.20;;;4.33;;
6785;SDS011;3430;51.192;6.048;2022-10-31T07:17:39;7.47;;;4.70;;
6785;SDS011;3430;51.192;6.048;2022-10-31T07:20:04;7.60;;;5.20;;
6785;SDS011;3430;51.192;6.048;2022-10-31T07:22:33;6.47;;;4.77;;
6785;SDS011;3430;51.192;6.048;2022-10-31T07:24:58;9.20;;;5.23;;
6785;SDS011;3430;51.192;6.048;2022-10-31T07:27:24;7.87;;;5.13;;
6785;SDS011;3430;51.192;6.048;2022-10-31T07:29:49;6.83;;;4.60;;
6785;SDS011;3430;51.192;6.048;2022-10-31T07:32:14;7.57;;;4.93;;
6785;SDS011;3430;51.192;6.048;2022-10-31T07:34:39;6.43;;;5.50;;
6785;SDS011;3430;51.192;6.048;2022-10-31T07:37:05;5.70;;;4.97;;
6785;SDS011;3430;51.192;6.048;2022-10-31T07:39:30;6.57;;;5.57;;
6785;SDS011;3430;51.192;6.048;2022-10-31T07:41:57;6.97;;;5.03;;
6785;SDS011;3430;51.192;6.048;2022-10-31T07:44:23;7.40;;;5.43;;
6785;SDS011;3430;51.192;6.048;2022-10-31T07:46:48;7.17;;;5.50;;
6785;SDS011;3430;51.192;6.048;2022-10-31T07:49:13;7.73;;;4.87;;
6785;SDS011;3430;51.192;6.048;2022-10-31T07:51:38;8.47;;;5.27;;
6785;SDS011;3430;51.192;6.048;2022-10-31T07:54:04;6.20;;;4.80;;
6785;SDS011;3430;51.192;6.048;2022-10-31T07:56:29;6.60;;;5.07;;
6785;SDS011;3430;51.192;6.048;2022-10-31T07:58:54;9.17;;;5.60;;
6785;SDS011;3430;51.192;6.048;2022-10-31T08:01:19;5.97;;;4.80;;
6785;SDS011;3430;51.192;6.048;2022-10-31T08:03:45;10.97;;;5.70;;
6785;SDS011;3430;51.192;6.048;2022-10-31T08:06:10;7.33;;;5.03;;
6785;SDS011;3430;51.192;6.048;2022-10-31T08:08:35;6.17;;;4.50;;
6785;SDS011;3430;51.192;6.048;2022-10-31T08:11:01;6.33;;;4.43;;
6785;SDS011;3430;51.192;6.048;2022-10-31T08:13:26;6.53;;;4.97;;
6785;SDS011;3430;51.192;6.048;2022-10-31T08:15:51;7.50;;;4.50;;
6785;SDS011;3430;51.192;6.048;2022-10-31T08:18:18;6.37;;;4.97;;
6785;SDS011;3430;51.192;6.048;2022-10-31T08:20:43;9.87;;;5.60;;
6785;SDS011;3430;51.192;6.048;2022-10-31T08:23:10;9.83;;;5.73;;
6785;SDS011;3430;51.192;6.048;2022-10-31T08:25:35;7.60;;;5.00;;
6785;SDS011;3430;51.192;6.048;2022-10-31T08:28:01;7.93;;;5.60;;
6785;SDS011;3430;51.192;6.048;2022-10-31T08:30:28;8.67;;;6.37;;
6785;SDS011;3430;51.192;6.048;2022-10-31T08:32:59;8.23;;;5.33;;
6785;SDS011;3430;51.192;6.048;2022-10-31T08:35:24;8.97;;;5.53;;
6785;SDS011;3430;51.192;6.048;2022-10-31T08:37:56;8.30;;;5.40;;
6785;SDS011;3430;51.192;6.048;2022-10-31T08:40:22;7.00;;;5.27;;
6785;SDS011;3430;51.192;6.048;2022-10-31T08:42:47;9.03;;;5.60;;
6785;SDS011;3430;51.192;6.048;2022-10-31T08:45:12;7.63;;;5.57;;
6785;SDS011;3430;51.192;6.048;2022-10-31T08:47:38;8.83;;;5.83;;
6785;SDS011;3430;51.192;6.048;2022-10-31T08:50:04;9.17;;;5.20;;
6785;SDS011;3430;51.192;6.048;2022-10-31T08:52:29;10.63;;;5.67;;
6785;SDS011;3430;51.192;6.048;2022-10-31T08:54:55;10.27;;;5.73;;
6785;SDS011;3430;51.192;6.048;2022-10-31T08:57:20;7.50;;;5.40;;
6785;SDS011;3430;51.192;6.048;2022-10-31T08:59:45;8.33;;;6.00;;
6785;SDS011;3430;51.192;6.048;2022-10-31T09:02:11;9.70;;;5.93;;
6785;SDS011;3430;51.192;6.048;2022-10-31T09:04:36;6.97;;;5.73;;
6785;SDS011;3430;51.192;6.048;2022-10-31T09:07:01;9.73;;;6.57;;
6785;SDS011;3430;51.192;6.048;2022-10-31T09:09:27;7.20;;;6.00;;
6785;SDS011;3430;51.192;6.048;2022-10-31T09:11:52;8.60;;;5.77;;
6785;SDS011;3430;51.192;6.048;2022-10-31T09:14:17;7.30;;;5.27;;
6785;SDS011;3430;51.192;6.048;2022-10-31T09:16:42;9.73;;;6.13;;
6785;SDS011;3430;51.192;6.048;2022-10-31T09:19:07;10.60;;;6.60;;
6785;SDS011;3430;51.192;6.048;2022-10-31T09:21:33;11.53;;;6.40;;
6785;SDS011;3430;51.192;6.048;2022-10-31T09:23:58;21.40;;;7.70;;
6785;SDS011;3430;51.192;6.048;2022-10-31T09:26:23;11.43;;;6.77;;
6785;SDS011;3430;51.192;6.048;2022-10-31T09:28:49;12.67;;;7.33;;
6785;SDS011;3430;51.192;6.048;2022-10-31T09:31:14;13.40;;;7.60;;
6785;SDS011;3430;51.192;6.048;2022-10-31T09:33:39;12.20;;;6.97;;
6785;SDS011;3430;51.192;6.048;2022-10-31T09:36:05;13.07;;;7.97;;
6785;SDS011;3430;51.192;6.048;2022-10-31T09:38:30;7.53;;;6.17;;
6785;SDS011;3430;51.192;6.048;2022-10-31T09:46:21;12.90;;;6.13;;
6785;SDS011;3430;51.192;6.048;2022-10-31T09:56:17;14.67;;;7.40;;
6785;SDS011;3430;51.192;6.048;2022-10-31T09:58:44;11.97;;;6.77;;
6785;SDS011;3430;51.192;6.048;2022-10-31T10:01:15;13.17;;;7.60;;
6785;SDS011;3430;51.192;6.048;2022-10-31T10:03:43;8.83;;;6.00;;
6785;SDS011;3430;51.192;6.048;2022-10-31T10:06:27;13.47;;;7.17;;
6785;SDS011;3430;51.192;6.048;2022-10-31T10:08:54;8.87;;;6.37;;
6785;SDS011;3430;51.192;6.048;2022-10-31T10:12:03;9.80;;;6.00;;
6785;SDS011;3430;51.192;6.048;2022-10-31T10:14:27;9.90;;;6.17;;
6785;SDS011;3430;51.192;6.048;2022-10-31T10:17:12;10.57;;;6.73;;
6785;SDS011;3430;51.192;6.048;2022-10-31T10:19:51;10.73;;;6.90;;
6785;SDS011;3430;51.192;6.048;2022-10-31T10:22:36;11.07;;;6.63;;
6785;SDS011;3430;51.192;6.048;2022-10-31T10:25:21;11.20;;;5.97;;
6785;SDS011;3430;51.192;6.048;2022-10-31T10:31:05;14.53;;;6.00;;
6785;SDS011;3430;51.192;6.048;2022-10-31T10:33:19;12.83;;;6.30;;
6785;SDS011;3430;51.192;6.048;2022-10-31T10:40:55;8.17;;;5.47;;
6785;SDS011;3430;51.192;6.048;2022-10-31T10:48:52;7.83;;;5.97;;
6785;SDS011;3430;51.192;6.048;2022-10-31T10:59:18;7.77;;;4.87;;
6785;SDS011;3430;51.192;6.048;2022-10-31T11:01:44;7.97;;;5.57;;
6785;SDS011;3430;51.192;6.048;2022-10-31T11:07:04;7.90;;;5.40;;
6785;SDS011;3430;51.192;6.048;2022-10-31T11:09:29;11.10;;;5.73;;
6785;SDS011;3430;51.192;6.048;2022-10-31T11:11:55;8.53;;;5.40;;
6785;SDS011;3430;51.192;6.048;2022-10-31T11:14:21;9.50;;;5.53;;
6785;SDS011;3430;51.192;6.048;2022-10-31T11:16:48;12.07;;;5.67;;
6785;SDS011;3430;51.192;6.048;2022-10-31T11:19:21;10.93;;;5.47;;
6785;SDS011;3430;51.192;6.048;2022-10-31T11:21:46;8.57;;;5.10;;
6785;SDS011;3430;51.192;6.048;2022-10-31T11:24:13;9.10;;;5.27;;
6785;SDS011;3430;51.192;6.048;2022-10-31T11:26:40;9.20;;;4.97;;
6785;SDS011;3430;51.192;6.048;2022-10-31T11:29:13;10.37;;;4.87;;
6785;SDS011;3430;51.192;6.048;2022-10-31T11:31:41;10.60;;;5.93;;
6785;SDS011;3430;51.192;6.048;2022-10-31T11:34:12;11.43;;;5.43;;
6785;SDS011;3430;51.192;6.048;2022-10-31T11:36:39;10.00;;;5.47;;
6785;SDS011;3430;51.192;6.048;2022-10-31T11:39:13;8.53;;;5.77;;
6785;SDS011;3430;51.192;6.048;2022-10-31T11:41:39;8.17;;;5.17;;
6785;SDS011;3430;51.192;6.048;2022-10-31T11:44:17;6.87;;;4.63;;
6785;SDS011;3430;51.192;6.048;2022-10-31T11:46:44;8.60;;;5.40;;
6785;SDS011;3430;51.192;6.048;2022-10-31T11:49:13;7.77;;;4.90;;
6785;SDS011;3430;51.192;6.048;2022-10-31T11:51:43;8.20;;;5.00;;
6785;SDS011;3430;51.192;6.048;2022-10-31T11:54:18;11.90;;;5.47;;
6785;SDS011;3430;51.192;6.048;2022-10-31T11:56:45;8.60;;;5.13;;
6785;SDS011;3430;51.192;6.048;2022-10-31T11:59:32;7.43;;;5.43;;
6785;SDS011;3430;51.192;6.048;2022-10-31T12:01:58;11.23;;;5.10;;
6785;SDS011;3430;51.192;6.048;2022-10-31T12:04:43;5.07;;;4.57;;
6785;SDS011;3430;51.192;6.048;2022-10-31T12:07:11;10.60;;;4.60;;
6785;SDS011;3430;51.192;6.048;2022-10-31T12:09:37;7.30;;;5.00;;
6785;SDS011;3430;51.192;6.048;2022-10-31T12:19:59;9.27;;;4.80;;
6785;SDS011;3430;51.192;6.048;2022-10-31T12:22:37;8.47;;;5.03;;
6785;SDS011;3430;51.192;6.048;2022-10-31T12:27:49;5.07;;;4.47;;
6785;SDS011;3430;51.192;6.048;2022-10-31T12:51:28;7.43;;;4.73;;
6785;SDS011;3430;51.192;6.048;2022-10-31T12:59:13;6.13;;;4.13;;
6785;SDS011;3430;51.192;6.048;2022-10-31T13:01:47;6.43;;;4.43;;
6785;SDS011;3430;51.192;6.048;2022-10-31T13:04:15;10.50;;;4.60;;
6785;SDS011;3430;51.192;6.048;2022-10-31T13:06:42;10.43;;;4.50;;
6785;SDS011;3430;51.192;6.048;2022-10-31T13:09:13;7.13;;;4.53;;
6785;SDS011;3430;51.192;6.048;2022-10-31T13:11:42;9.13;;;4.87;;
6785;SDS011;3430;51.192;6.048;2022-10-31T13:14:29;7.90;;;4.60;;
6785;SDS011;3430;51.192;6.048;2022-10-31T13:16:56;5.63;;;4.50;;
6785;SDS011;3430;51.192;6.048;2022-10-31T13:19:23;6.83;;;4.50;;
6785;SDS011;3430;51.192;6.048;2022-10-31T13:21:58;4.40;;;3.73;;
6785;SDS011;3430;51.192;6.048;2022-10-31T13:27:23;6.60;;;4.13;;
6785;SDS011;3430;51.192;6.048;2022-10-31T13:30:00;6.30;;;4.20;;
6785;SDS011;3430;51.192;6.048;2022-10-31T13:32:35;7.47;;;4.23;;
6785;SDS011;3430;51.192;6.048;2022-10-31T13:35:03;7.47;;;4.23;;
6785;SDS011;3430;51.192;6.048;2022-10-31T13:37:40;6.33;;;3.77;;
6785;SDS011;3430;51.192;6.048;2022-10-31T13:40:14;11.70;;;4.50;;
6785;SDS011;3430;51.192;6.048;2022-10-31T13:42:47;8.37;;;4.20;;
6785;SDS011;3430;51.192;6.048;2022-10-31T13:45:15;4.83;;;4.03;;
6785;SDS011;3430;51.192;6.048;2022-10-31T13:47:41;8.10;;;4.67;;
6785;SDS011;3430;51.192;6.048;2022-10-31T13:50:28;6.33;;;4.40;;
6785;SDS011;3430;51.192;6.048;2022-10-31T13:52:54;8.13;;;4.53;;
6785;SDS011;3430;51.192;6.048;2022-10-31T13:55:35;5.47;;;4.77;;
6785;SDS011;3430;51.192;6.048;2022-10-31T13:58:03;8.40;;;4.03;;
6785;SDS011;3430;51.192;6.048;2022-10-31T14:00:29;7.13;;;4.70;;
6785;SDS011;3430;51.192;6.048;2022-10-31T14:02:59;5.67;;;4.00;;
6785;SDS011;3430;51.192;6.048;2022-10-31T14:05:25;7.50;;;4.70;;
6785;SDS011;3430;51.192;6.048;2022-10-31T14:07:54;6.47;;;4.10;;
6785;SDS011;3430;51.192;6.048;2022-10-31T14:10:27;4.97;;;4.07;;
6785;SDS011;3430;51.192;6.048;2022-10-31T14:13:14;5.27;;;4.17;;
6785;SDS011;3430;51.192;6.048;2022-10-31T14:15:42;6.13;;;3.60;;
6785;SDS011;3430;51.192;6.048;2022-10-31T14:18:17;10.37;;;4.73;;
6785;SDS011;3430;51.192;6.048;2022-10-31T14:20:46;4.43;;;4.03;;
6785;SDS011;3430;51.192;6.048;2022-10-31T14:28:40;5.17;;;4.13;;
6785;SDS011;3430;51.192;6.048;2022-10-31T14:31:21;5.93;;;4.37;;
6785;SDS011;3430;51.192;6.048;2022-10-31T14:33:51;8.27;;;4.40;;
6785;SDS011;3430;51.192;6.048;2022-10-31T14:36:37;7.00;;;4.07;;
6785;SDS011;3430;51.192;6.048;2022-10-31T14:39:15;6.50;;;4.00;;
6785;SDS011;3430;51.192;6.048;2022-10-31T14:51:56;6.97;;;4.33;;
6785;SDS011;3430;51.192;6.048;2022-10-31T14:56:51;4.53;;;3.67;;
6785;SDS011;3430;51.192;6.048;2022-10-31T14:59:18;4.80;;;3.20;;
6785;SDS011;3430;51.192;6.048;2022-10-31T15:01:56;7.73;;;4.60;;
6785;SDS011;3430;51.192;6.048;2022-10-31T15:04:22;6.70;;;4.00;;
6785;SDS011;3430;51.192;6.048;2022-10-31T15:06:50;3.80;;;3.40;;
6785;SDS011;3430;51.192;6.048;2022-10-31T15:09:35;7.83;;;3.90;;
6785;SDS011;3430;51.192;6.048;2022-10-31T15:12:20;6.40;;;4.07;;
6785;SDS011;3430;51.192;6.048;2022-10-31T15:14:46;10.27;;;3.33;;
6785;SDS011;3430;51.192;6.048;2022-10-31T15:17:12;4.27;;;3.83;;
6785;SDS011;3430;51.192;6.048;2022-10-31T15:19:37;6.03;;;3.80;;
6785;SDS011;3430;51.192;6.048;2022-10-31T15:22:03;6.07;;;4.00;;
6785;SDS011;3430;51.192;6.048;2022-10-31T15:24:35;5.27;;;4.33;;
6785;SDS011;3430;51.192;6.048;2022-10-31T15:27:01;4.70;;;3.67;;
6785;SDS011;3430;51.192;6.048;2022-10-31T15:29:27;7.57;;;4.93;;
6785;SDS011;3430;51.192;6.048;2022-10-31T15:31:56;5.30;;;3.83;;
6785;SDS011;3430;51.192;6.048;2022-10-31T15:34:24;8.30;;;4.43;;
6785;SDS011;3430;51.192;6.048;2022-10-31T15:36:51;6.40;;;3.87;;
6785;SDS011;3430;51.192;6.048;2022-10-31T15:39:17;5.87;;;4.20;;
6785;SDS011;3430;51.192;6.048;2022-10-31T15:41:49;6.07;;;3.87;;
6785;SDS011;3430;51.192;6.048;2022-10-31T15:44:26;6.60;;;4.07;;
6785;SDS011;3430;51.192;6.048;2022-10-31T15:46:52;4.03;;;3.63;;
6785;SDS011;3430;51.192;6.048;2022-10-31T15:49:24;5.30;;;3.47;;
6785;SDS011;3430;51.192;6.048;2022-10-31T15:51:54;7.80;;;4.20;;
6785;SDS011;3430;51.192;6.048;2022-10-31T15:54:20;6.10;;;4.13;;
6785;SDS011;3430;51.192;6.048;2022-10-31T15:56:46;5.20;;;3.50;;
6785;SDS011;3430;51.192;6.048;2022-10-31T15:59:12;4.53;;;3.87;;
6785;SDS011;3430;51.192;6.048;2022-10-31T16:01:39;5.53;;;3.60;;
6785;SDS011;3430;51.192;6.048;2022-10-31T16:06:30;6.77;;;4.50;;
6785;SDS011;3430;51.192;6.048;2022-10-31T16:08:56;5.03;;;3.83;;
6785;SDS011;3430;51.192;6.048;2022-10-31T16:11:37;5.37;;;3.50;;
6785;SDS011;3430;51.192;6.048;2022-10-31T16:14:07;4.93;;;3.77;;
6785;SDS011;3430;51.192;6.048;2022-10-31T16:16:41;7.03;;;3.87;;
6785;SDS011;3430;51.192;6.048;2022-10-31T16:19:12;5.50;;;3.70;;
6785;SDS011;3430;51.192;6.048;2022-10-31T16:21:39;5.87;;;3.63;;
6785;SDS011;3430;51.192;6.048;2022-10-31T16:24:11;8.47;;;3.83;;
6785;SDS011;3430;51.192;6.048;2022-10-31T16:26:39;6.00;;;3.63;;
6785;SDS011;3430;51.192;6.048;2022-10-31T16:29:22;5.10;;;3.20;;
6785;SDS011;3430;51.192;6.048;2022-10-31T16:31:48;5.60;;;4.07;;
6785;SDS011;3430;51.192;6.048;2022-10-31T16:34:15;5.17;;;3.67;;
6785;SDS011;3430;51.192;6.048;2022-10-31T16:36:40;5.50;;;3.97;;
6785;SDS011;3430;51.192;6.048;2022-10-31T16:39:06;5.30;;;4.13;;
6785;SDS011;3430;51.192;6.048;2022-10-31T16:41:33;8.50;;;4.00;;
6785;SDS011;3430;51.192;6.048;2022-10-31T16:43:59;5.80;;;4.10;;
6785;SDS011;3430;51.192;6.048;2022-10-31T16:46:26;6.97;;;3.70;;
6785;SDS011;3430;51.192;6.048;2022-10-31T16:48:52;10.90;;;4.30;;
6785;SDS011;3430;51.192;6.048;2022-10-31T16:51:18;7.73;;;4.03;;
6785;SDS011;3430;51.192;6.048;2022-10-31T16:53:43;5.27;;;3.33;;
6785;SDS011;3430;51.192;6.048;2022-10-31T16:56:20;7.03;;;4.03;;
6785;SDS011;3430;51.192;6.048;2022-10-31T16:58:48;8.23;;;3.90;;
6785;SDS011;3430;51.192;6.048;2022-10-31T17:01:14;5.03;;;3.33;;
6785;SDS011;3430;51.192;6.048;2022-10-31T17:03:39;5.77;;;4.10;;
6785;SDS011;3430;51.192;6.048;2022-10-31T17:06:04;6.27;;;3.40;;
6785;SDS011;3430;51.192;6.048;2022-10-31T17:08:30;6.40;;;4.00;;
6785;SDS011;3430;51.192;6.048;2022-10-31T17:10:55;8.10;;;3.63;;
6785;SDS011;3430;51.192;6.048;2022-10-31T17:13:22;7.37;;;4.43;;